Portada
METAR-TAF:

METAR-TAF

Aeropuertos :

Aeropuerto Internacional Gengis Kan

Ulán Bator, Mongolia

latitud: 47-55N, longitud: 106-52E, altitud: 1306 m

Observación

El informe se hizo hace 8 minutos, a las 03:00 UTC
Viento 2 kt con dirección variable
Temperatura -18°C
Humedad 77%
Presión 1014 hPa
Visibilidad: 5000 m
humo

METAR: ZMUB 120300Z VRB01MPS 5000NW FU NSC M18/M21 Q1014 NOSIG RMK QFE653.3 76 NW MO

Hora: 11:08 (03:08 UTC)

Pronóstico

El informe se hizo hace 4 horas y 28 minutos, a las 22:40 UTC
Pronóstico válido del 12 a las 00 UTC al 13 a las 06 UTC
Viento 4 kt con dirección variable
Visibilidad: 6000 m
Nubes dispersas a una altura de 10000 ft

TAF: ZMUB 112240Z 1200/1306 VRB02MPS 6000 SCT100 TXM11/1207Z TNM25/1223Z

Observaciones y pronósticos meteorológicos de más de 4000 aeropuertos (mensajes METAR y TAF).

Los puntos amarillos y rojos representan las estaciones disponibles.

Ponga el ratón en el punto deseado para ver el nombre de la estación.

Haga clic para ver las observaciones y los pronósticos meteorológicos.

Para cambiar el mapa : haga clic en los botones verdes con una cruz de color negro para hacer un zoom, en el botón verde con un guión para alejar o en las flechas verdes para mapas adyacentes.


METAR-TAF: